createdAt,value
2022-09-17T00:01:47.397Z,11.03
2022-09-17T00:04:16.436Z,11.00
2022-09-17T00:06:45.434Z,11.04
2022-09-17T00:09:15.793Z,11.07
2022-09-17T00:11:45.065Z,11.07
2022-09-17T00:14:16.310Z,11.07
2022-09-17T00:16:47.159Z,11.08
2022-09-17T00:19:18.450Z,11.08
2022-09-17T00:21:48.092Z,11.10
2022-09-17T00:24:19.502Z,11.17
2022-09-17T00:26:49.069Z,11.15
2022-09-17T00:29:18.376Z,11.09
2022-09-17T00:31:47.465Z,11.05
2022-09-17T00:34:16.452Z,11.03
2022-09-17T00:36:45.485Z,11.00
2022-09-17T00:39:16.292Z,10.99
2022-09-17T00:41:46.802Z,11.02
2022-09-17T00:44:40.671Z,10.96
2022-09-17T00:47:14.761Z,10.80
2022-09-17T00:49:44.550Z,10.80
2022-09-17T00:52:17.057Z,10.81
2022-09-17T00:54:53.667Z,10.77
2022-09-17T00:57:24.190Z,10.74
2022-09-17T00:59:53.372Z,10.73
2022-09-17T01:02:22.605Z,10.71
2022-09-17T01:04:51.999Z,10.70
2022-09-17T01:07:40.643Z,10.72
2022-09-17T01:10:21.013Z,10.73
2022-09-17T01:13:06.787Z,10.71
2022-09-17T01:15:43.451Z,10.72
2022-09-17T01:18:37.764Z,10.66
2022-09-17T01:21:40.466Z,10.60
2022-09-17T01:24:54.379Z,10.60
2022-09-17T01:28:08.451Z,10.57
2022-09-17T01:31:02.436Z,10.52
2022-09-17T01:33:40.947Z,10.50
2022-09-17T01:36:27.430Z,10.40
2022-09-17T01:39:06.828Z,10.43
2022-09-17T01:41:44.840Z,10.35
2022-09-17T01:44:21.275Z,10.31
2022-09-17T01:46:56.357Z,10.36
2022-09-17T01:49:26.564Z,10.32
2022-09-17T01:51:56.842Z,10.29
2022-09-17T01:54:31.261Z,10.33
2022-09-17T01:57:05.417Z,10.29
2022-09-17T01:59:39.096Z,10.15
2022-09-17T02:02:16.066Z,10.20
2022-09-17T02:04:54.398Z,10.13
2022-09-17T02:07:26.031Z,10.05
2022-09-17T02:10:00.576Z,10.01
2022-09-17T02:12:35.294Z,9.99
2022-09-17T02:15:08.754Z,9.97
2022-09-17T02:17:45.366Z,9.95
2022-09-17T02:20:15.720Z,9.92
2022-09-17T02:22:52.414Z,9.86
2022-09-17T02:25:27.374Z,9.97
2022-09-17T02:28:03.803Z,9.89
2022-09-17T02:30:33.233Z,9.86
2022-09-17T02:33:06.773Z,9.80
2022-09-17T02:35:36.563Z,9.81
2022-09-17T02:38:05.894Z,9.88
2022-09-17T02:40:42.362Z,9.97
2022-09-17T02:43:23.283Z,10.01
2022-09-17T02:46:06.341Z,9.96
2022-09-17T02:48:54.677Z,10.00
2022-09-17T02:51:33.212Z,10.02
2022-09-17T02:54:13.375Z,10.01
2022-09-17T02:56:47.516Z,10.03
2022-09-17T02:59:24.194Z,10.03
2022-09-17T03:01:59.746Z,10.03
2022-09-17T03:04:32.125Z,10.01
2022-09-17T03:07:02.084Z,10.04
2022-09-17T03:09:31.197Z,10.05
2022-09-17T03:12:00.193Z,10.08
2022-09-17T03:14:29.251Z,10.10
2022-09-17T03:16:58.382Z,10.20
2022-09-17T03:19:28.894Z,10.20
2022-09-17T03:21:57.916Z,10.20
2022-09-17T03:24:27.090Z,10.21
2022-09-17T03:26:56.206Z,10.30
2022-09-17T03:29:25.682Z,10.31
2022-09-17T03:31:54.586Z,10.31
2022-09-17T03:34:23.930Z,10.40
2022-09-17T03:36:54.259Z,10.40
2022-09-17T03:39:23.445Z,10.42
2022-09-17T03:41:52.586Z,10.42
2022-09-17T03:44:23.720Z,10.44
2022-09-17T03:46:52.836Z,10.36
2022-09-17T03:49:23.958Z,10.31
2022-09-17T03:51:54.462Z,10.31
2022-09-17T03:54:23.458Z,10.31
2022-09-17T03:56:52.368Z,10.26
2022-09-17T03:59:21.344Z,10.22
2022-09-17T04:01:50.540Z,10.26
2022-09-17T04:04:19.545Z,10.26
2022-09-17T04:06:49.170Z,10.33
2022-09-17T04:09:19.769Z,10.34
2022-09-17T04:11:48.681Z,10.39
2022-09-17T04:14:17.659Z,10.44
2022-09-17T04:16:46.598Z,10.43
2022-09-17T04:19:15.549Z,10.47
2022-09-17T04:21:44.489Z,10.45
2022-09-17T04:24:13.453Z,10.42
2022-09-17T04:26:43.823Z,10.44
2022-09-17T04:29:12.787Z,10.43
2022-09-17T04:31:42.091Z,10.42
2022-09-17T04:34:11.116Z,10.37
2022-09-17T04:36:40.221Z,10.36
2022-09-17T04:39:09.761Z,10.38
2022-09-17T04:41:38.755Z,10.43
2022-09-17T04:44:09.029Z,10.44
2022-09-17T04:46:38.113Z,10.40
2022-09-17T04:49:07.181Z,10.38
2022-09-17T04:51:36.268Z,10.36
2022-09-17T04:54:05.372Z,10.35
2022-09-17T04:56:34.416Z,10.34
2022-09-17T04:59:03.406Z,10.30
2022-09-17T05:01:33.808Z,10.30
2022-09-17T05:04:03.295Z,10.27
2022-09-17T05:06:32.385Z,10.24
2022-09-17T05:09:02.052Z,10.24
2022-09-17T05:11:31.107Z,10.20
2022-09-17T05:14:00.299Z,10.18
2022-09-17T05:16:29.393Z,10.20
2022-09-17T05:18:59.888Z,10.21
2022-09-17T05:21:29.187Z,10.16
2022-09-17T05:23:58.290Z,10.19
2022-09-17T05:26:27.494Z,10.16
2022-09-17T05:28:56.510Z,10.19
2022-09-17T05:31:25.570Z,10.21
2022-09-17T05:33:54.614Z,10.27
2022-09-17T05:36:25.163Z,10.22
2022-09-17T05:38:54.176Z,10.24
2022-09-17T05:41:23.289Z,10.31
2022-09-17T05:43:52.307Z,10.32
2022-09-17T05:46:21.421Z,10.33
2022-09-17T05:48:50.462Z,10.38
2022-09-17T05:51:19.741Z,10.49
2022-09-17T05:53:50.159Z,10.44
2022-09-17T05:56:19.414Z,10.48
2022-09-17T05:58:48.389Z,10.47
2022-09-17T06:01:17.386Z,10.52
2022-09-17T06:03:46.366Z,10.46
2022-09-17T06:06:15.409Z,10.45
2022-09-17T06:08:44.488Z,10.59
2022-09-17T06:11:14.914Z,10.69
2022-09-17T06:13:44.513Z,10.71
2022-09-17T06:16:13.530Z,10.75
2022-09-17T06:18:42.507Z,10.78
2022-09-17T06:21:11.496Z,10.79
2022-09-17T06:23:40.452Z,10.94
2022-09-17T06:26:09.425Z,10.76
2022-09-17T06:28:41.838Z,10.78
2022-09-17T06:31:13.898Z,10.78
2022-09-17T06:33:43.003Z,10.67
2022-09-17T06:36:14.346Z,10.64
2022-09-17T06:38:44.200Z,10.61
2022-09-17T06:41:14.525Z,10.60
2022-09-17T06:43:45.010Z,10.60
2022-09-17T06:46:14.446Z,10.62
2022-09-17T06:48:43.436Z,10.50
2022-09-17T06:51:14.618Z,10.56
2022-09-17T06:53:43.570Z,10.54
2022-09-17T06:56:12.612Z,10.52
2022-09-17T06:58:44.729Z,10.45
2022-09-17T07:01:17.482Z,10.47
2022-09-17T07:03:51.667Z,10.49
2022-09-17T07:06:22.519Z,10.58
2022-09-17T07:08:52.625Z,10.73
2022-09-17T07:11:22.527Z,10.73
2022-09-17T07:13:52.326Z,10.75
2022-09-17T07:16:24.504Z,11.29
2022-09-17T07:18:53.841Z,11.88
2022-09-17T07:21:22.824Z,12.36
2022-09-17T07:23:53.182Z,12.63
2022-09-17T07:26:22.366Z,12.50
2022-09-17T07:28:51.550Z,12.51
2022-09-17T07:31:22.003Z,12.29
2022-09-17T07:33:51.452Z,12.52
2022-09-17T07:36:20.746Z,12.69
2022-09-17T07:38:51.225Z,12.59
2022-09-17T07:41:21.498Z,12.40
2022-09-17T07:43:55.722Z,12.52
2022-09-17T07:46:27.896Z,12.25
2022-09-17T07:48:58.310Z,12.24
2022-09-17T07:51:30.145Z,12.31
2022-09-17T07:54:02.687Z,12.32
2022-09-17T07:56:33.255Z,12.00
2022-09-17T07:59:05.312Z,12.11
2022-09-17T08:01:37.494Z,12.12
2022-09-17T08:04:08.756Z,11.91
2022-09-17T08:06:41.672Z,12.17
2022-09-17T08:09:13.346Z,12.41
2022-09-17T08:11:55.655Z,12.40
2022-09-17T08:14:29.739Z,12.70
2022-09-17T08:17:02.499Z,12.39
2022-09-17T08:19:34.213Z,12.57
2022-09-17T08:22:04.783Z,12.86
2022-09-17T08:24:35.089Z,12.81
2022-09-17T08:27:05.720Z,13.01
2022-09-17T08:29:35.854Z,13.26
2022-09-17T08:32:08.325Z,13.23
2022-09-17T08:34:38.708Z,13.96
2022-09-17T08:37:11.812Z,13.48
2022-09-17T08:39:43.111Z,13.61
2022-09-17T08:42:22.082Z,13.41
2022-09-17T08:44:55.212Z,14.04
2022-09-17T08:47:38.237Z,13.60
2022-09-17T08:50:15.471Z,14.21
2022-09-17T08:53:18.941Z,13.62
2022-09-17T08:55:53.335Z,14.43
2022-09-17T08:58:39.465Z,14.20
2022-09-17T09:01:29.484Z,13.55
2022-09-17T09:04:16.773Z,13.50
2022-09-17T09:06:54.075Z,12.64
2022-09-17T09:09:28.116Z,12.32
2022-09-17T09:12:06.244Z,11.96
2022-09-17T09:14:41.875Z,12.11
2022-09-17T09:17:12.581Z,11.97
2022-09-17T09:19:46.840Z,12.25
2022-09-17T09:22:32.154Z,12.41
2022-09-17T09:25:11.362Z,12.61
2022-09-17T09:27:47.647Z,12.27
2022-09-17T09:30:23.802Z,11.70
2022-09-17T09:33:06.770Z,11.41
2022-09-17T09:35:41.741Z,11.24
2022-09-17T09:38:21.435Z,11.62
2022-09-17T09:40:56.307Z,11.85
2022-09-17T09:43:46.591Z,12.92
2022-09-17T09:46:44.537Z,13.34
2022-09-17T09:49:23.872Z,13.74
2022-09-17T09:52:09.435Z,13.30
2022-09-17T09:54:53.261Z,13.75
2022-09-17T09:57:33.137Z,13.80
2022-09-17T10:00:26.871Z,14.10
2022-09-17T10:03:00.568Z,14.28
2022-09-17T10:05:31.839Z,14.24
2022-09-17T10:08:11.611Z,14.31
2022-09-17T10:10:56.588Z,14.31
2022-09-17T10:13:25.873Z,13.86
2022-09-17T10:15:54.892Z,14.10
2022-09-17T10:18:25.507Z,14.54
2022-09-17T10:20:57.337Z,15.00
2022-09-17T10:23:29.905Z,14.52
2022-09-17T10:25:59.325Z,14.31
2022-09-17T10:28:34.888Z,13.60
2022-09-17T10:31:10.175Z,13.29
2022-09-17T10:33:56.638Z,13.60
2022-09-17T10:36:40.208Z,13.10
2022-09-17T10:39:32.728Z,13.89
2022-09-17T10:42:03.758Z,13.56
2022-09-17T10:44:34.450Z,13.09
2022-09-17T10:47:13.066Z,13.61
2022-09-17T10:49:45.664Z,13.64
2022-09-17T10:52:24.534Z,13.83
2022-09-17T10:55:05.178Z,12.85
2022-09-17T10:57:59.258Z,12.81
2022-09-17T11:00:30.984Z,12.94
2022-09-17T11:03:19.147Z,13.43
2022-09-17T11:06:07.855Z,12.72
2022-09-17T11:08:50.688Z,12.43
2022-09-17T11:11:33.271Z,12.77
2022-09-17T11:14:15.303Z,13.42
2022-09-17T11:16:57.635Z,12.73
2022-09-17T11:19:36.297Z,13.06
2022-09-17T11:22:14.441Z,12.83
2022-09-17T11:25:09.220Z,12.52
2022-09-17T11:27:51.389Z,13.38
2022-09-17T11:30:23.117Z,12.90
2022-09-17T11:33:18.612Z,14.27
2022-09-17T11:35:50.764Z,14.01
2022-09-17T11:38:24.983Z,14.04
2022-09-17T11:41:03.642Z,14.36
2022-09-17T11:43:36.568Z,13.65
2022-09-17T11:46:11.752Z,14.58
2022-09-17T11:48:46.525Z,14.32
2022-09-17T11:51:25.598Z,13.93
2022-09-17T11:54:00.797Z,14.60
2022-09-17T11:56:35.244Z,13.78
2022-09-17T11:59:13.948Z,15.10
2022-09-17T12:01:51.349Z,15.75
2022-09-17T12:04:43.798Z,14.40
2022-09-17T12:07:30.081Z,15.50
2022-09-17T12:10:03.888Z,14.91
2022-09-17T12:12:49.681Z,14.55
2022-09-17T12:15:23.618Z,14.09
2022-09-17T12:18:27.736Z,14.22
2022-09-17T12:20:56.509Z,14.54
2022-09-17T12:23:34.680Z,15.11
2022-09-17T12:26:15.462Z,15.01
2022-09-17T12:28:54.686Z,15.28
2022-09-17T12:31:32.175Z,16.08
2022-09-17T12:34:10.171Z,14.89
2022-09-17T12:36:48.981Z,14.51
2022-09-17T12:39:57.007Z,15.56
2022-09-17T12:42:41.702Z,14.82
2022-09-17T12:45:41.964Z,14.58
2022-09-17T12:48:35.174Z,15.26
2022-09-17T12:51:22.750Z,15.67
2022-09-17T12:54:06.502Z,15.52
2022-09-17T12:56:51.472Z,15.66
2022-09-17T12:59:24.983Z,14.83
2022-09-17T13:02:00.489Z,13.82
2022-09-17T13:05:08.663Z,14.12
2022-09-17T13:07:54.188Z,14.46
2022-09-17T13:10:42.659Z,15.03
2022-09-17T13:13:28.033Z,15.16
2022-09-17T13:16:13.270Z,14.21
2022-09-17T13:21:55.114Z,14.01
2022-09-17T13:24:29.896Z,14.45
2022-09-17T13:27:02.636Z,16.59
2022-09-17T13:30:01.059Z,15.80
2022-09-17T13:32:51.484Z,15.33
2022-09-17T13:35:50.079Z,15.31
2022-09-17T13:38:23.997Z,15.20
2022-09-17T13:40:53.953Z,15.78
2022-09-17T13:43:27.210Z,14.96
2022-09-17T13:46:12.756Z,14.35
2022-09-17T13:49:00.756Z,13.43
2022-09-17T13:51:51.819Z,12.48
2022-09-17T13:54:24.221Z,11.97
2022-09-17T13:57:10.042Z,11.72
2022-09-17T13:59:52.381Z,11.59
2022-09-17T14:02:37.248Z,11.36
2022-09-17T14:05:32.081Z,11.30
2022-09-17T14:08:31.102Z,11.29
2022-09-17T14:11:23.286Z,11.39
2022-09-17T14:13:53.112Z,11.72
2022-09-17T14:16:46.230Z,11.92
2022-09-17T14:19:27.853Z,12.05
2022-09-17T14:22:04.325Z,12.69
2022-09-17T14:24:38.474Z,13.34
2022-09-17T14:27:30.951Z,13.57
2022-09-17T14:30:14.628Z,13.23
2022-09-17T14:32:49.404Z,12.96
2022-09-17T14:35:22.834Z,12.60
2022-09-17T14:37:58.968Z,12.64
2022-09-17T14:40:29.468Z,12.62
2022-09-17T14:43:00.283Z,12.32
2022-09-17T14:45:32.365Z,12.16
2022-09-17T14:48:36.997Z,12.10
2022-09-17T14:51:30.238Z,11.90
2022-09-17T14:54:15.487Z,11.89
2022-09-17T14:56:50.319Z,11.90
2022-09-17T14:59:26.638Z,11.93
2022-09-17T15:01:55.763Z,11.92
2022-09-17T15:04:27.098Z,12.04
2022-09-17T15:07:08.964Z,12.10
2022-09-17T15:09:38.159Z,12.10
2022-09-17T15:12:08.754Z,12.13
2022-09-17T15:14:40.792Z,12.24
2022-09-17T15:17:16.940Z,12.30
2022-09-17T15:19:50.096Z,12.21
2022-09-17T15:22:24.481Z,12.13
2022-09-17T15:24:56.849Z,12.08
2022-09-17T15:27:30.232Z,12.12
2022-09-17T15:30:03.710Z,12.13
2022-09-17T15:32:33.430Z,12.33
2022-09-17T15:35:21.724Z,12.19
2022-09-17T15:40:42.499Z,12.81
2022-09-17T15:43:22.449Z,12.75
2022-09-17T15:45:52.970Z,13.29
2022-09-17T15:48:46.074Z,12.97
2022-09-17T15:51:25.624Z,12.69
2022-09-17T15:53:56.235Z,12.50
2022-09-17T15:56:28.972Z,12.47
2022-09-17T15:59:02.349Z,12.39
2022-09-17T16:01:55.385Z,12.32
2022-09-17T16:04:29.029Z,12.21
2022-09-17T16:07:04.062Z,12.19
2022-09-17T16:09:46.694Z,12.26
2022-09-17T16:12:18.681Z,12.28
2022-09-17T16:14:50.144Z,12.28
2022-09-17T16:17:35.165Z,12.21
2022-09-17T16:20:13.842Z,12.11
2022-09-17T16:22:43.186Z,12.10
2022-09-17T16:25:12.366Z,12.13
2022-09-17T16:27:50.376Z,12.10
2022-09-17T16:30:22.006Z,12.07
2022-09-17T16:32:51.316Z,12.10
2022-09-17T16:35:23.672Z,12.15
2022-09-17T16:37:53.538Z,12.10
2022-09-17T16:40:24.797Z,12.07
2022-09-17T16:42:54.024Z,12.07
2022-09-17T16:45:28.114Z,11.95
2022-09-17T16:47:58.248Z,11.99
2022-09-17T16:50:30.287Z,11.98
2022-09-17T16:53:04.153Z,12.04
2022-09-17T16:55:34.355Z,12.06
2022-09-17T16:58:03.413Z,12.00
2022-09-17T17:00:32.449Z,11.96
2022-09-17T17:03:01.467Z,11.98
2022-09-17T17:05:32.364Z,11.94
2022-09-17T17:08:06.482Z,11.96
2022-09-17T17:10:36.460Z,11.98
2022-09-17T17:13:07.233Z,11.92
2022-09-17T17:15:36.502Z,11.94
2022-09-17T17:18:05.602Z,11.94
2022-09-17T17:20:38.252Z,11.89
2022-09-17T17:23:07.309Z,11.84
2022-09-17T17:25:36.311Z,11.81
2022-09-17T17:28:05.650Z,11.80
2022-09-17T17:30:35.202Z,11.71
2022-09-17T17:33:05.342Z,11.62
2022-09-17T17:35:34.493Z,11.60
2022-09-17T17:38:04.947Z,11.55
2022-09-17T17:40:34.091Z,11.60
2022-09-17T17:43:03.543Z,11.53
2022-09-17T17:45:32.466Z,11.46
2022-09-17T17:48:01.574Z,11.47
2022-09-17T17:50:30.529Z,11.42
2022-09-17T17:52:59.671Z,11.40
2022-09-17T17:55:30.011Z,11.31
2022-09-17T17:58:01.587Z,11.31
2022-09-17T18:00:30.927Z,11.21
2022-09-17T18:03:00.158Z,11.21
2022-09-17T18:05:29.326Z,11.07
2022-09-17T18:07:58.362Z,11.09
2022-09-17T18:10:29.374Z,11.02
2022-09-17T18:12:58.588Z,11.03
2022-09-17T18:15:27.641Z,11.00
2022-09-17T18:17:56.619Z,10.93
2022-09-17T18:20:25.641Z,10.93
2022-09-17T18:22:55.649Z,10.86
2022-09-17T18:25:24.603Z,10.85
2022-09-17T18:27:55.183Z,10.88
2022-09-17T18:30:24.432Z,10.83
2022-09-17T18:32:54.012Z,10.78
2022-09-17T18:35:23.493Z,10.74
2022-09-17T18:37:52.486Z,10.82
2022-09-17T18:40:21.734Z,10.78
2022-09-17T18:42:50.722Z,10.88
2022-09-17T18:45:24.382Z,10.99
2022-09-17T18:47:58.346Z,11.01
2022-09-17T18:50:27.444Z,11.10
2022-09-17T18:52:56.622Z,11.10
2022-09-17T18:55:25.586Z,11.10
2022-09-17T18:57:54.970Z,11.08
2022-09-17T19:00:25.741Z,11.14
2022-09-17T19:02:58.298Z,11.10
2022-09-17T19:05:27.309Z,11.12
2022-09-17T19:07:56.740Z,11.16
2022-09-17T19:10:28.656Z,11.19
2022-09-17T19:12:57.734Z,11.13
2022-09-17T19:15:28.610Z,11.12
2022-09-17T19:17:58.548Z,11.02
2022-09-17T19:20:29.397Z,11.04
2022-09-17T19:22:58.345Z,11.03
2022-09-17T19:25:28.054Z,11.04
2022-09-17T19:27:57.409Z,10.97
2022-09-17T19:30:29.699Z,10.94
2022-09-17T19:32:59.513Z,10.90
2022-09-17T19:35:30.212Z,10.94
2022-09-17T19:38:00.291Z,10.87
2022-09-17T19:40:29.484Z,10.90
2022-09-17T19:42:59.013Z,10.88
2022-09-17T19:45:32.693Z,10.91
2022-09-17T19:48:02.779Z,10.84
2022-09-17T19:50:32.596Z,10.84
2022-09-17T19:53:01.737Z,10.79
2022-09-17T19:55:33.438Z,10.80
2022-09-17T19:58:04.486Z,10.73
2022-09-17T20:00:36.382Z,10.69
2022-09-17T20:03:05.685Z,10.66
2022-09-17T20:05:36.481Z,10.64
2022-09-17T20:08:06.227Z,10.60
2022-09-17T20:10:37.433Z,10.69
2022-09-17T20:13:07.517Z,10.67
2022-09-17T20:15:38.166Z,10.63
2022-09-17T20:18:07.370Z,10.59
2022-09-17T20:20:39.868Z,10.55
2022-09-17T20:23:08.833Z,10.65
2022-09-17T20:25:38.242Z,10.59
2022-09-17T20:28:07.668Z,10.62
2022-09-17T20:30:38.536Z,10.58
2022-09-17T20:33:07.668Z,10.59
2022-09-17T20:35:37.225Z,10.56
2022-09-17T20:38:59.968Z,10.49
2022-09-17T20:41:01.469Z,10.47
2022-09-17T20:43:33.649Z,10.39
2022-09-17T20:46:04.668Z,10.38
2022-09-17T20:48:37.193Z,10.33
2022-09-17T20:51:08.315Z,10.25
2022-09-17T20:53:39.353Z,10.29
2022-09-17T20:56:10.268Z,10.26
2022-09-17T20:58:45.307Z,10.26
2022-09-17T21:01:23.395Z,10.28
2022-09-17T21:03:54.793Z,10.36
2022-09-17T21:06:29.674Z,10.35
2022-09-17T21:09:00.728Z,10.35
2022-09-17T21:11:32.283Z,10.40
2022-09-17T21:14:02.396Z,10.45
2022-09-17T21:16:32.899Z,10.41
2022-09-17T21:19:04.773Z,10.37
2022-09-17T21:21:34.492Z,10.46
2022-09-17T21:24:05.187Z,10.42
2022-09-17T21:26:38.269Z,10.44
2022-09-17T21:29:07.557Z,10.41
2022-09-17T21:31:39.379Z,10.40
2022-09-17T21:34:11.232Z,10.47
2022-09-17T21:36:43.385Z,10.47
2022-09-17T21:39:14.804Z,10.53
2022-09-17T21:41:44.313Z,10.47
2022-09-17T21:44:15.447Z,10.49
2022-09-17T21:46:50.227Z,10.48
2022-09-17T21:49:20.895Z,10.42
2022-09-17T21:51:51.890Z,10.36
2022-09-17T21:54:25.772Z,10.34
2022-09-17T21:56:56.421Z,10.34
2022-09-17T21:59:27.203Z,10.32
2022-09-17T22:01:59.458Z,10.32
2022-09-17T22:04:32.223Z,10.31
2022-09-17T22:07:05.368Z,10.34
2022-09-17T22:09:35.844Z,10.29
2022-09-17T22:12:08.129Z,10.30
2022-09-17T22:14:38.881Z,10.33
2022-09-17T22:17:10.857Z,10.25
2022-09-17T22:19:41.127Z,10.28
2022-09-17T22:22:11.147Z,10.38
2022-09-17T22:24:44.318Z,10.34
2022-09-17T22:27:13.342Z,10.37
2022-09-17T22:29:43.315Z,10.35
2022-09-17T22:32:15.687Z,10.43
2022-09-17T22:34:46.134Z,10.47
2022-09-17T22:37:16.162Z,10.40
2022-09-17T22:39:45.143Z,10.37
2022-09-17T22:42:16.632Z,10.41
2022-09-17T22:44:45.708Z,10.40
2022-09-17T22:47:17.958Z,10.38
2022-09-17T22:49:49.018Z,10.33
2022-09-17T22:52:18.386Z,10.37
2022-09-17T22:54:47.420Z,10.35
2022-09-17T22:57:16.579Z,10.37
2022-09-17T22:59:45.597Z,10.33
2022-09-17T23:02:16.033Z,10.34
2022-09-17T23:04:45.204Z,10.32
2022-09-17T23:07:14.225Z,10.27
2022-09-17T23:09:43.218Z,10.26
2022-09-17T23:12:12.276Z,10.24
2022-09-17T23:14:41.393Z,10.24
2022-09-17T23:17:10.373Z,10.18
2022-09-17T23:19:40.634Z,10.13
2022-09-17T23:22:09.701Z,10.06
2022-09-17T23:24:38.644Z,9.99
2022-09-17T23:27:07.755Z,9.99
2022-09-17T23:29:36.759Z,9.97
2022-09-17T23:32:06.090Z,9.87
2022-09-17T23:34:37.730Z,9.82
2022-09-17T23:37:08.203Z,9.72
2022-09-17T23:39:37.186Z,9.67
2022-09-17T23:42:06.254Z,9.59
2022-09-17T23:44:36.134Z,9.62
2022-09-17T23:47:05.458Z,9.59
2022-09-17T23:49:34.378Z,9.56
2022-09-17T23:52:03.623Z,9.57
2022-09-17T23:54:34.198Z,9.58
2022-09-17T23:57:03.213Z,9.63
2022-09-17T23:59:32.195Z,9.65
